»·PEaware :: WWW853 KLAS-KPMD

WWW853 :: KLAS-KPMD

FLIGHT INFORMATION

Flight Status: Arrived
Operator: Unknown
More flights by this operator :: More flights under this callsign
Pilot: Isaac R. (8401)
Aircraft: BOEING 737-600
(B736)
More flights by this aircraft type
Origin: KLAS McCarran Intl
United States
Destination: KPMD Palmdale AF Plant 42
United States
More flights between these airports :: More routes between these airports
Route: BOACH8 WHIGG V587 DAG V394 BASAL V12 PMD
File this flight plan on PilotEdge
Remarks:
Altitude:
(Current/Filed)
20,000ft
Speed:
(Current/Filed)
185kts
Departed: 29-Apr-19 03:51 PM
Arrived: 29-Apr-19 04:27 PM
Distance/Time
Traveled:
168nm/0:35
Distance/Time
To Go:
Arrived

Flight Plot

Page will automatically refresh every two minutes.

Flight plan parsing failed; only flown route is shown


Map Options




Map Legend


Flown Route
Filed Route
Departure Airport
Arrival Airport
Navaid (VOR, NDB)
Fix

Horizontal Profiles

Position Reports

Time Latitude Longitude Heading Altitude Ground
Speed
29-Apr-19 15:23 36.091064 -115.164803 75 2188ft 0kts
29-Apr-19 15:25 36.091064 -115.164803 75 2189ft 0kts
29-Apr-19 15:25 36.091064 -115.164803 75 2189ft 0kts
29-Apr-19 15:26 36.091064 -115.164803 75 2189ft 0kts
29-Apr-19 15:27 36.091064 -115.164803 75 2189ft 0kts
29-Apr-19 15:28 36.091064 -115.164803 75 2189ft 0kts
29-Apr-19 15:29 36.091064 -115.164803 75 2189ft 0kts
29-Apr-19 15:30 36.091064 -115.164803 75 2189ft 0kts
29-Apr-19 15:31 36.091064 -115.164803 75 2189ft 0kts
29-Apr-19 15:32 36.091064 -115.164803 75 2189ft 0kts
29-Apr-19 15:33 36.091064 -115.164803 75 2189ft 0kts
29-Apr-19 15:34 36.091064 -115.164803 75 2189ft 0kts
29-Apr-19 15:35 36.091064 -115.164803 75 2189ft 0kts
29-Apr-19 15:36 36.091064 -115.164803 75 2189ft 0kts
29-Apr-19 15:37 36.091064 -115.164803 75 2189ft 0kts
29-Apr-19 15:38 36.091064 -115.164803 75 2189ft 0kts
29-Apr-19 15:39 36.091064 -115.164803 75 2189ft 0kts
29-Apr-19 15:40 36.091064 -115.164803 75 2189ft 0kts
29-Apr-19 15:41 36.091064 -115.164803 75 2189ft 0kts
29-Apr-19 15:42 36.091064 -115.164803 75 2189ft 0kts
29-Apr-19 15:43 36.091064 -115.164803 75 2189ft 0kts
29-Apr-19 15:44 36.091064 -115.164803 75 2189ft 0kts
29-Apr-19 15:45 36.091064 -115.164803 75 2189ft 0kts
29-Apr-19 15:46 36.092015 -115.163243 24 2189ft 17kts
29-Apr-19 15:47 36.096639 -115.160583 23 2189ft 13kts
29-Apr-19 15:48 36.099715 -115.158027 69 2189ft 8kts
29-Apr-19 15:49 36.099609 -115.156708 114 2189ft 8kts
29-Apr-19 15:50 36.089194 -115.162436 203 2190ft 131kts
29-Apr-19 15:51 36.048091 -115.185562 208 4530ft 171kts
29-Apr-19 15:52 36.004448 -115.227716 238 6737ft 247kts
29-Apr-19 15:53 35.956979 -115.297489 196 7007ft 277kts
29-Apr-19 15:54 35.880258 -115.312564 184 10974ft 282kts
29-Apr-19 15:55 35.795379 -115.308471 173 14362ft 315kts
29-Apr-19 15:56 35.705993 -115.298552 182 18164ft 327kts
29-Apr-19 15:57 35.630274 -115.359485 222 18752ft 334kts
29-Apr-19 15:58 35.566892 -115.444561 223 18753ft 334kts
29-Apr-19 15:59 35.504048 -115.528865 223 19461ft 341kts
29-Apr-19 16:00 35.440862 -115.613536 223 19747ft 331kts
29-Apr-19 16:01 35.378630 -115.696494 222 19744ft 331kts
29-Apr-19 16:02 35.316751 -115.779966 227 19742ft 333kts
29-Apr-19 16:03 35.270098 -115.879350 237 19740ft 337kts
29-Apr-19 16:04 35.225923 -115.980892 237 19749ft 353kts
29-Apr-19 16:05 35.173859 -116.100591 239 19749ft 428kts
29-Apr-19 16:06 35.139825 -116.241277 257 19709ft 438kts
29-Apr-19 16:07 35.118537 -116.387718 257 19752ft 438kts
29-Apr-19 16:08 35.096697 -116.534444 257 19755ft 438kts
29-Apr-19 16:09 35.066889 -116.678020 247 19756ft 436kts
29-Apr-19 16:10 35.023928 -116.816986 247 19663ft 437kts
29-Apr-19 16:11 34.981293 -116.954060 247 17969ft 427kts
29-Apr-19 16:12 34.939671 -117.087988 248 16375ft 418kts
29-Apr-19 16:13 34.898598 -117.220418 248 15571ft 415kts
29-Apr-19 16:14 34.857686 -117.350066 245 14767ft 393kts
29-Apr-19 16:15 34.801792 -117.447269 232 13552ft 317kts
29-Apr-19 16:16 34.749907 -117.530216 232 12055ft 299kts
29-Apr-19 16:17 34.701084 -117.608077 232 10553ft 281kts
29-Apr-19 16:18 34.655873 -117.683665 246 8780ft 271kts
29-Apr-19 16:19 34.649425 -117.766084 265 7418ft 214kts
29-Apr-19 16:20 34.646025 -117.832275 264 6378ft 182kts
29-Apr-19 16:21 34.642631 -117.894222 264 5405ft 182kts
29-Apr-19 16:22 34.639481 -117.951556 261 4505ft 158kts
29-Apr-19 16:23 34.637178 -117.998440 260 3632ft 126kts
29-Apr-19 16:24 34.634757 -118.040675 261 3100ft 131kts
29-Apr-19 16:25 34.632243 -118.083711 260 2551ft 108kts
29-Apr-19 16:26 34.631630 -118.097603 332 2551ft 8kts
29-Apr-19 16:27 34.634554 -118.097355 76 2551ft 0kts
29-Apr-19 16:28 34.636508 -118.098479 82 2551ft 5kts
29-Apr-19 16:29 34.636500 -118.098354 96 2551ft 0kts
29-Apr-19 16:30 34.636500 -118.098354 96 2551ft 0kts
29-Apr-19 16:31 34.636500 -118.098354 96 2551ft 0kts
29-Apr-19 16:32 34.636500 -118.098354 96 2551ft 0kts

Navigation Log

Ident Type
Flight plan parsing failed, navigation log unavailable